sensor_id;sensor_type;location;lat;lon;timestamp;P1;durP1;ratioP1;P2;durP2;ratioP2
5414;SDS011;2730;51.512;7.504;2024-01-10T00:01:00;6.00;;;2.40;;
5414;SDS011;2730;51.512;7.504;2024-01-10T00:03:29;2.33;;;2.13;;
5414;SDS011;2730;51.512;7.504;2024-01-10T00:05:56;5.90;;;1.65;;
5414;SDS011;2730;51.512;7.504;2024-01-10T00:08:23;4.40;;;2.03;;
5414;SDS011;2730;51.512;7.504;2024-01-10T00:10:53;4.47;;;2.15;;
5414;SDS011;2730;51.512;7.504;2024-01-10T00:13:20;3.83;;;2.88;;
5414;SDS011;2730;51.512;7.504;2024-01-10T00:15:47;5.60;;;2.40;;
5414;SDS011;2730;51.512;7.504;2024-01-10T00:18:15;3.47;;;2.30;;
5414;SDS011;2730;51.512;7.504;2024-01-10T00:20:43;4.80;;;2.10;;
5414;SDS011;2730;51.512;7.504;2024-01-10T00:23:13;5.70;;;2.22;;
5414;SDS011;2730;51.512;7.504;2024-01-10T00:25:41;2.83;;;1.50;;
5414;SDS011;2730;51.512;7.504;2024-01-10T00:28:08;6.97;;;2.58;;
5414;SDS011;2730;51.512;7.504;2024-01-10T00:30:35;3.30;;;1.90;;
5414;SDS011;2730;51.512;7.504;2024-01-10T00:33:02;4.28;;;1.95;;
5414;SDS011;2730;51.512;7.504;2024-01-10T00:35:28;4.68;;;2.42;;
5414;SDS011;2730;51.512;7.504;2024-01-10T00:37:58;6.85;;;2.47;;
5414;SDS011;2730;51.512;7.504;2024-01-10T00:40:25;5.70;;;2.45;;
5414;SDS011;2730;51.512;7.504;2024-01-10T00:42:53;2.45;;;2.17;;
5414;SDS011;2730;51.512;7.504;2024-01-10T00:45:20;3.45;;;2.60;;
5414;SDS011;2730;51.512;7.504;2024-01-10T00:47:48;4.38;;;2.63;;
5414;SDS011;2730;51.512;7.504;2024-01-10T00:50:16;4.55;;;2.33;;
5414;SDS011;2730;51.512;7.504;2024-01-10T00:52:45;3.63;;;1.83;;
5414;SDS011;2730;51.512;7.504;2024-01-10T00:55:15;2.97;;;2.67;;
5414;SDS011;2730;51.512;7.504;2024-01-10T00:57:41;4.50;;;2.22;;
5414;SDS011;2730;51.512;7.504;2024-01-10T01:00:09;2.60;;;1.95;;
5414;SDS011;2730;51.512;7.504;2024-01-10T01:02:36;3.72;;;2.08;;
5414;SDS011;2730;51.512;7.504;2024-01-10T01:05:06;5.63;;;2.83;;
5414;SDS011;2730;51.512;7.504;2024-01-10T01:07:33;8.23;;;2.60;;
5414;SDS011;2730;51.512;7.504;2024-01-10T01:10:00;1.83;;;1.63;;
5414;SDS011;2730;51.512;7.504;2024-01-10T01:12:37;2.80;;;1.52;;
5414;SDS011;2730;51.512;7.504;2024-01-10T01:15:05;5.43;;;2.10;;
5414;SDS011;2730;51.512;7.504;2024-01-10T01:17:35;5.15;;;2.70;;
5414;SDS011;2730;51.512;7.504;2024-01-10T01:20:02;3.65;;;1.75;;
5414;SDS011;2730;51.512;7.504;2024-01-10T01:22:30;3.92;;;1.95;;
5414;SDS011;2730;51.512;7.504;2024-01-10T01:24:59;2.72;;;1.40;;
5414;SDS011;2730;51.512;7.504;2024-01-10T01:27:26;7.93;;;2.10;;
5414;SDS011;2730;51.512;7.504;2024-01-10T01:29:54;6.72;;;2.45;;
5414;SDS011;2730;51.512;7.504;2024-01-10T01:32:21;9.63;;;2.58;;
5414;SDS011;2730;51.512;7.504;2024-01-10T01:34:48;5.00;;;3.17;;
5414;SDS011;2730;51.512;7.504;2024-01-10T01:37:15;1.90;;;1.80;;
5414;SDS011;2730;51.512;7.504;2024-01-10T01:39:42;2.42;;;2.22;;
5414;SDS011;2730;51.512;7.504;2024-01-10T01:42:11;13.88;;;2.70;;
5414;SDS011;2730;51.512;7.504;2024-01-10T01:44:38;3.90;;;1.88;;
5414;SDS011;2730;51.512;7.504;2024-01-10T01:47:06;13.10;;;2.63;;
5414;SDS011;2730;51.512;7.504;2024-01-10T01:49:32;4.15;;;2.28;;
5414;SDS011;2730;51.512;7.504;2024-01-10T01:51:59;8.82;;;2.78;;
5414;SDS011;2730;51.512;7.504;2024-01-10T01:54:26;2.95;;;2.25;;
5414;SDS011;2730;51.512;7.504;2024-01-10T01:56:54;2.25;;;2.00;;
5414;SDS011;2730;51.512;7.504;2024-01-10T01:59:22;7.85;;;2.42;;
5414;SDS011;2730;51.512;7.504;2024-01-10T02:01:54;5.25;;;3.00;;
5414;SDS011;2730;51.512;7.504;2024-01-10T02:04:23;6.63;;;2.28;;
5414;SDS011;2730;51.512;7.504;2024-01-10T02:06:50;6.85;;;1.95;;
5414;SDS011;2730;51.512;7.504;2024-01-10T02:09:20;6.50;;;2.78;;
5414;SDS011;2730;51.512;7.504;2024-01-10T02:11:47;5.43;;;3.08;;
5414;SDS011;2730;51.512;7.504;2024-01-10T02:14:14;6.28;;;2.67;;
5414;SDS011;2730;51.512;7.504;2024-01-10T02:16:41;4.35;;;2.40;;
5414;SDS011;2730;51.512;7.504;2024-01-10T02:19:18;6.30;;;2.30;;
5414;SDS011;2730;51.512;7.504;2024-01-10T02:21:47;6.63;;;2.80;;
5414;SDS011;2730;51.512;7.504;2024-01-10T02:24:24;4.35;;;2.28;;
5414;SDS011;2730;51.512;7.504;2024-01-10T02:26:55;3.17;;;2.35;;
5414;SDS011;2730;51.512;7.504;2024-01-10T02:29:22;3.08;;;2.83;;
5414;SDS011;2730;51.512;7.504;2024-01-10T02:31:49;3.17;;;2.13;;
5414;SDS011;2730;51.512;7.504;2024-01-10T02:34:16;4.78;;;3.05;;
5414;SDS011;2730;51.512;7.504;2024-01-10T02:36:43;4.03;;;2.65;;
5414;SDS011;2730;51.512;7.504;2024-01-10T02:39:10;11.77;;;2.42;;
5414;SDS011;2730;51.512;7.504;2024-01-10T02:41:37;7.88;;;3.17;;
5414;SDS011;2730;51.512;7.504;2024-01-10T02:44:05;4.88;;;2.35;;
5414;SDS011;2730;51.512;7.504;2024-01-10T02:46:35;12.45;;;3.25;;
5414;SDS011;2730;51.512;7.504;2024-01-10T02:49:03;8.98;;;3.17;;
5414;SDS011;2730;51.512;7.504;2024-01-10T02:51:34;5.53;;;2.78;;
5414;SDS011;2730;51.512;7.504;2024-01-10T02:54:01;3.05;;;2.35;;
5414;SDS011;2730;51.512;7.504;2024-01-10T02:56:30;3.45;;;2.40;;
5414;SDS011;2730;51.512;7.504;2024-01-10T02:58:57;11.45;;;3.42;;
5414;SDS011;2730;51.512;7.504;2024-01-10T03:01:25;9.13;;;3.45;;
5414;SDS011;2730;51.512;7.504;2024-01-10T03:03:52;24.73;;;3.83;;
5414;SDS011;2730;51.512;7.504;2024-01-10T03:06:19;4.35;;;2.60;;
5414;SDS011;2730;51.512;7.504;2024-01-10T03:08:47;3.97;;;2.35;;
5414;SDS011;2730;51.512;7.504;2024-01-10T03:11:17;5.50;;;3.42;;
5414;SDS011;2730;51.512;7.504;2024-01-10T03:13:44;7.20;;;2.88;;
5414;SDS011;2730;51.512;7.504;2024-01-10T03:16:14;5.53;;;2.63;;
5414;SDS011;2730;51.512;7.504;2024-01-10T03:18:45;3.28;;;2.53;;
5414;SDS011;2730;51.512;7.504;2024-01-10T03:21:12;3.67;;;3.33;;
5414;SDS011;2730;51.512;7.504;2024-01-10T03:23:38;6.82;;;3.15;;
5414;SDS011;2730;51.512;7.504;2024-01-10T03:26:07;4.70;;;2.25;;
5414;SDS011;2730;51.512;7.504;2024-01-10T03:28:36;7.80;;;3.17;;
5414;SDS011;2730;51.512;7.504;2024-01-10T03:31:02;6.97;;;2.53;;
5414;SDS011;2730;51.512;7.504;2024-01-10T03:33:31;7.70;;;3.30;;
5414;SDS011;2730;51.512;7.504;2024-01-10T03:36:00;11.55;;;2.58;;
5414;SDS011;2730;51.512;7.504;2024-01-10T03:38:26;3.00;;;2.17;;
5414;SDS011;2730;51.512;7.504;2024-01-10T03:40:56;8.20;;;3.28;;
5414;SDS011;2730;51.512;7.504;2024-01-10T03:43:24;5.18;;;2.45;;
5414;SDS011;2730;51.512;7.504;2024-01-10T03:45:52;7.68;;;2.92;;
5414;SDS011;2730;51.512;7.504;2024-01-10T03:48:20;9.15;;;3.00;;
5414;SDS011;2730;51.512;7.504;2024-01-10T03:50:46;7.70;;;2.80;;
5414;SDS011;2730;51.512;7.504;2024-01-10T03:53:15;6.85;;;3.22;;
5414;SDS011;2730;51.512;7.504;2024-01-10T03:55:42;9.43;;;2.70;;
5414;SDS011;2730;51.512;7.504;2024-01-10T03:58:09;9.40;;;2.45;;
5414;SDS011;2730;51.512;7.504;2024-01-10T04:00:35;9.23;;;2.80;;
5414;SDS011;2730;51.512;7.504;2024-01-10T04:03:02;4.60;;;3.65;;
5414;SDS011;2730;51.512;7.504;2024-01-10T04:05:31;5.78;;;3.65;;
5414;SDS011;2730;51.512;7.504;2024-01-10T04:07:58;4.20;;;2.10;;
5414;SDS011;2730;51.512;7.504;2024-01-10T04:10:27;7.07;;;3.05;;
5414;SDS011;2730;51.512;7.504;2024-01-10T04:12:54;4.72;;;2.40;;
5414;SDS011;2730;51.512;7.504;2024-01-10T04:15:20;5.82;;;2.70;;
5414;SDS011;2730;51.512;7.504;2024-01-10T04:17:47;3.45;;;2.60;;
5414;SDS011;2730;51.512;7.504;2024-01-10T04:20:15;8.93;;;2.63;;
5414;SDS011;2730;51.512;7.504;2024-01-10T04:22:42;4.60;;;2.90;;
5414;SDS011;2730;51.512;7.504;2024-01-10T04:25:11;3.50;;;2.20;;
5414;SDS011;2730;51.512;7.504;2024-01-10T04:27:39;5.55;;;2.33;;
5414;SDS011;2730;51.512;7.504;2024-01-10T04:30:06;5.25;;;2.50;;
5414;SDS011;2730;51.512;7.504;2024-01-10T04:32:34;5.72;;;2.75;;
5414;SDS011;2730;51.512;7.504;2024-01-10T04:35:01;12.15;;;3.28;;
5414;SDS011;2730;51.512;7.504;2024-01-10T04:37:27;8.48;;;3.17;;
5414;SDS011;2730;51.512;7.504;2024-01-10T04:39:54;8.35;;;2.28;;
5414;SDS011;2730;51.512;7.504;2024-01-10T04:42:22;4.03;;;2.33;;
5414;SDS011;2730;51.512;7.504;2024-01-10T04:44:50;6.95;;;3.33;;
5414;SDS011;2730;51.512;7.504;2024-01-10T04:47:18;4.45;;;2.53;;
5414;SDS011;2730;51.512;7.504;2024-01-10T04:49:45;14.13;;;2.88;;
5414;SDS011;2730;51.512;7.504;2024-01-10T04:52:12;6.15;;;3.10;;
5414;SDS011;2730;51.512;7.504;2024-01-10T04:54:39;6.75;;;3.67;;
5414;SDS011;2730;51.512;7.504;2024-01-10T04:57:07;7.75;;;4.07;;
5414;SDS011;2730;51.512;7.504;2024-01-10T04:59:34;5.25;;;2.75;;
5414;SDS011;2730;51.512;7.504;2024-01-10T05:02:03;3.13;;;2.40;;
5414;SDS011;2730;51.512;7.504;2024-01-10T05:04:30;8.88;;;3.03;;
5414;SDS011;2730;51.512;7.504;2024-01-10T05:06:57;5.35;;;2.95;;
5414;SDS011;2730;51.512;7.504;2024-01-10T05:09:24;5.85;;;2.47;;
5414;SDS011;2730;51.512;7.504;2024-01-10T05:11:53;5.43;;;3.15;;
5414;SDS011;2730;51.512;7.504;2024-01-10T05:14:20;9.95;;;4.45;;
5414;SDS011;2730;51.512;7.504;2024-01-10T05:16:50;7.93;;;2.88;;
5414;SDS011;2730;51.512;7.504;2024-01-10T05:19:21;6.63;;;2.95;;
5414;SDS011;2730;51.512;7.504;2024-01-10T05:21:48;6.90;;;3.22;;
5414;SDS011;2730;51.512;7.504;2024-01-10T05:24:15;14.73;;;3.33;;
5414;SDS011;2730;51.512;7.504;2024-01-10T05:26:43;4.70;;;2.50;;
5414;SDS011;2730;51.512;7.504;2024-01-10T05:29:10;4.53;;;2.38;;
5414;SDS011;2730;51.512;7.504;2024-01-10T05:31:38;4.07;;;2.58;;
5414;SDS011;2730;51.512;7.504;2024-01-10T05:34:05;7.15;;;3.90;;
5414;SDS011;2730;51.512;7.504;2024-01-10T05:36:33;7.95;;;2.42;;
5414;SDS011;2730;51.512;7.504;2024-01-10T05:39:02;7.63;;;3.00;;
5414;SDS011;2730;51.512;7.504;2024-01-10T05:41:29;9.90;;;3.83;;
5414;SDS011;2730;51.512;7.504;2024-01-10T05:43:56;9.70;;;3.85;;
5414;SDS011;2730;51.512;7.504;2024-01-10T05:46:23;5.55;;;2.95;;
5414;SDS011;2730;51.512;7.504;2024-01-10T05:48:53;4.13;;;2.65;;
5414;SDS011;2730;51.512;7.504;2024-01-10T05:51:20;8.85;;;3.63;;
5414;SDS011;2730;51.512;7.504;2024-01-10T05:53:48;8.60;;;3.03;;
5414;SDS011;2730;51.512;7.504;2024-01-10T05:56:15;3.08;;;2.42;;
5414;SDS011;2730;51.512;7.504;2024-01-10T05:58:42;10.80;;;3.75;;
5414;SDS011;2730;51.512;7.504;2024-01-10T06:01:10;5.72;;;3.08;;
5414;SDS011;2730;51.512;7.504;2024-01-10T06:03:37;5.05;;;2.50;;
5414;SDS011;2730;51.512;7.504;2024-01-10T06:06:04;7.30;;;4.93;;
5414;SDS011;2730;51.512;7.504;2024-01-10T06:08:31;8.80;;;3.47;;
5414;SDS011;2730;51.512;7.504;2024-01-10T06:11:03;6.78;;;3.05;;
5414;SDS011;2730;51.512;7.504;2024-01-10T06:13:35;9.57;;;3.95;;
5414;SDS011;2730;51.512;7.504;2024-01-10T06:16:02;9.65;;;3.05;;
5414;SDS011;2730;51.512;7.504;2024-01-10T06:18:29;5.78;;;2.85;;
5414;SDS011;2730;51.512;7.504;2024-01-10T06:20:56;6.05;;;2.65;;
5414;SDS011;2730;51.512;7.504;2024-01-10T06:23:23;5.97;;;3.47;;
5414;SDS011;2730;51.512;7.504;2024-01-10T06:25:50;8.45;;;3.85;;
5414;SDS011;2730;51.512;7.504;2024-01-10T06:28:20;13.10;;;4.53;;
5414;SDS011;2730;51.512;7.504;2024-01-10T06:30:48;10.48;;;2.92;;
5414;SDS011;2730;51.512;7.504;2024-01-10T06:33:15;9.45;;;3.35;;
5414;SDS011;2730;51.512;7.504;2024-01-10T06:35:42;6.85;;;2.78;;
5414;SDS011;2730;51.512;7.504;2024-01-10T06:38:10;7.50;;;3.70;;
5414;SDS011;2730;51.512;7.504;2024-01-10T06:40:37;8.00;;;3.70;;
5414;SDS011;2730;51.512;7.504;2024-01-10T06:43:06;11.07;;;3.47;;
5414;SDS011;2730;51.512;7.504;2024-01-10T06:45:34;8.00;;;3.10;;
5414;SDS011;2730;51.512;7.504;2024-01-10T06:48:02;9.05;;;2.90;;
5414;SDS011;2730;51.512;7.504;2024-01-10T06:50:29;9.48;;;2.80;;
5414;SDS011;2730;51.512;7.504;2024-01-10T06:52:56;4.85;;;2.88;;
5414;SDS011;2730;51.512;7.504;2024-01-10T06:55:22;15.88;;;4.85;;
5414;SDS011;2730;51.512;7.504;2024-01-10T06:57:51;11.48;;;3.80;;
5414;SDS011;2730;51.512;7.504;2024-01-10T07:00:19;6.10;;;3.63;;
5414;SDS011;2730;51.512;7.504;2024-01-10T07:02:51;5.15;;;3.00;;
5414;SDS011;2730;51.512;7.504;2024-01-10T07:05:18;5.63;;;3.20;;
5414;SDS011;2730;51.512;7.504;2024-01-10T07:07:45;8.07;;;3.80;;
5414;SDS011;2730;51.512;7.504;2024-01-10T07:10:14;9.32;;;4.03;;
5414;SDS011;2730;51.512;7.504;2024-01-10T07:12:41;8.82;;;3.28;;
5414;SDS011;2730;51.512;7.504;2024-01-10T07:15:08;11.18;;;4.57;;
5414;SDS011;2730;51.512;7.504;2024-01-10T07:17:36;4.40;;;3.55;;
5414;SDS011;2730;51.512;7.504;2024-01-10T07:20:06;8.52;;;4.20;;
5414;SDS011;2730;51.512;7.504;2024-01-10T07:22:37;12.82;;;4.10;;
5414;SDS011;2730;51.512;7.504;2024-01-10T07:25:04;6.90;;;3.03;;
5414;SDS011;2730;51.512;7.504;2024-01-10T07:27:31;9.48;;;3.95;;
5414;SDS011;2730;51.512;7.504;2024-01-10T07:29:59;20.55;;;3.45;;
5414;SDS011;2730;51.512;7.504;2024-01-10T07:32:26;10.55;;;4.47;;
5414;SDS011;2730;51.512;7.504;2024-01-10T07:34:54;8.77;;;3.70;;
5414;SDS011;2730;51.512;7.504;2024-01-10T07:37:25;7.88;;;3.85;;
5414;SDS011;2730;51.512;7.504;2024-01-10T07:39:53;11.80;;;3.75;;
5414;SDS011;2730;51.512;7.504;2024-01-10T07:42:22;11.13;;;4.20;;
5414;SDS011;2730;51.512;7.504;2024-01-10T07:44:49;15.77;;;5.82;;
5414;SDS011;2730;51.512;7.504;2024-01-10T07:47:16;12.95;;;4.95;;
5414;SDS011;2730;51.512;7.504;2024-01-10T07:49:46;6.07;;;3.17;;
5414;SDS011;2730;51.512;7.504;2024-01-10T07:52:15;10.15;;;4.00;;
5414;SDS011;2730;51.512;7.504;2024-01-10T07:54:45;12.35;;;3.88;;
5414;SDS011;2730;51.512;7.504;2024-01-10T07:57:13;15.32;;;5.05;;
5414;SDS011;2730;51.512;7.504;2024-01-10T07:59:39;7.68;;;4.05;;
5414;SDS011;2730;51.512;7.504;2024-01-10T08:02:06;5.32;;;3.55;;
5414;SDS011;2730;51.512;7.504;2024-01-10T08:04:35;6.60;;;3.35;;
5414;SDS011;2730;51.512;7.504;2024-01-10T08:07:03;11.77;;;4.78;;
5414;SDS011;2730;51.512;7.504;2024-01-10T08:09:31;7.78;;;3.78;;
5414;SDS011;2730;51.512;7.504;2024-01-10T08:12:00;7.50;;;2.58;;
5414;SDS011;2730;51.512;7.504;2024-01-10T08:14:26;6.95;;;3.85;;
5414;SDS011;2730;51.512;7.504;2024-01-10T08:16:53;16.13;;;4.68;;
5414;SDS011;2730;51.512;7.504;2024-01-10T08:19:23;9.32;;;3.00;;
5414;SDS011;2730;51.512;7.504;2024-01-10T08:21:50;9.63;;;3.33;;
5414;SDS011;2730;51.512;7.504;2024-01-10T08:24:18;10.43;;;4.13;;
5414;SDS011;2730;51.512;7.504;2024-01-10T08:26:44;15.20;;;5.53;;
5414;SDS011;2730;51.512;7.504;2024-01-10T08:29:15;13.40;;;4.60;;
5414;SDS011;2730;51.512;7.504;2024-01-10T08:31:42;17.40;;;5.60;;
5414;SDS011;2730;51.512;7.504;2024-01-10T08:34:09;11.63;;;5.57;;
5414;SDS011;2730;51.512;7.504;2024-01-10T08:36:37;17.60;;;4.10;;
5414;SDS011;2730;51.512;7.504;2024-01-10T08:39:04;12.32;;;5.88;;
5414;SDS011;2730;51.512;7.504;2024-01-10T08:41:31;9.43;;;3.50;;
5414;SDS011;2730;51.512;7.504;2024-01-10T08:43:59;14.27;;;5.93;;
5414;SDS011;2730;51.512;7.504;2024-01-10T08:46:27;10.25;;;4.25;;
5414;SDS011;2730;51.512;7.504;2024-01-10T08:48:54;8.48;;;4.03;;
5414;SDS011;2730;51.512;7.504;2024-01-10T08:51:20;4.97;;;3.40;;
5414;SDS011;2730;51.512;7.504;2024-01-10T08:53:47;8.13;;;3.58;;
5414;SDS011;2730;51.512;7.504;2024-01-10T08:56:14;9.63;;;4.28;;
5414;SDS011;2730;51.512;7.504;2024-01-10T08:58:41;9.63;;;3.45;;
5414;SDS011;2730;51.512;7.504;2024-01-10T09:01:08;13.55;;;5.20;;
5414;SDS011;2730;51.512;7.504;2024-01-10T09:03:37;18.48;;;5.72;;
5414;SDS011;2730;51.512;7.504;2024-01-10T09:06:04;7.28;;;4.22;;
5414;SDS011;2730;51.512;7.504;2024-01-10T09:08:32;21.08;;;4.35;;
5414;SDS011;2730;51.512;7.504;2024-01-10T09:10:59;16.17;;;6.20;;
5414;SDS011;2730;51.512;7.504;2024-01-10T09:13:26;13.43;;;4.55;;
5414;SDS011;2730;51.512;7.504;2024-01-10T09:15:53;14.63;;;5.30;;
5414;SDS011;2730;51.512;7.504;2024-01-10T09:18:20;16.30;;;6.00;;
5414;SDS011;2730;51.512;7.504;2024-01-10T09:20:48;11.57;;;5.05;;
5414;SDS011;2730;51.512;7.504;2024-01-10T09:23:15;18.15;;;5.10;;
5414;SDS011;2730;51.512;7.504;2024-01-10T09:25:41;10.40;;;4.88;;
5414;SDS011;2730;51.512;7.504;2024-01-10T09:28:10;18.38;;;6.63;;
5414;SDS011;2730;51.512;7.504;2024-01-10T09:30:37;25.35;;;7.10;;
5414;SDS011;2730;51.512;7.504;2024-01-10T09:33:05;13.18;;;5.57;;
5414;SDS011;2730;51.512;7.504;2024-01-10T09:35:36;12.65;;;4.78;;
5414;SDS011;2730;51.512;7.504;2024-01-10T09:38:04;15.13;;;6.03;;
5414;SDS011;2730;51.512;7.504;2024-01-10T09:40:31;19.27;;;6.45;;
5414;SDS011;2730;51.512;7.504;2024-01-10T09:42:59;17.88;;;7.07;;
5414;SDS011;2730;51.512;7.504;2024-01-10T09:45:25;15.18;;;7.03;;
5414;SDS011;2730;51.512;7.504;2024-01-10T09:47:56;15.60;;;6.75;;
5414;SDS011;2730;51.512;7.504;2024-01-10T09:50:24;17.55;;;6.47;;
5414;SDS011;2730;51.512;7.504;2024-01-10T09:52:58;14.32;;;6.97;;
5414;SDS011;2730;51.512;7.504;2024-01-10T09:55:33;18.48;;;6.60;;
5414;SDS011;2730;51.512;7.504;2024-01-10T09:58:02;24.42;;;10.10;;
5414;SDS011;2730;51.512;7.504;2024-01-10T10:00:30;12.65;;;7.00;;
5414;SDS011;2730;51.512;7.504;2024-01-10T10:03:00;19.83;;;7.22;;
5414;SDS011;2730;51.512;7.504;2024-01-10T10:05:30;14.88;;;6.80;;
5414;SDS011;2730;51.512;7.504;2024-01-10T10:07:59;21.08;;;7.32;;
5414;SDS011;2730;51.512;7.504;2024-01-10T10:10:27;13.05;;;6.13;;
5414;SDS011;2730;51.512;7.504;2024-01-10T10:12:56;18.17;;;8.45;;
5414;SDS011;2730;51.512;7.504;2024-01-10T10:15:24;18.58;;;8.15;;
5414;SDS011;2730;51.512;7.504;2024-01-10T10:17:52;20.75;;;7.50;;
5414;SDS011;2730;51.512;7.504;2024-01-10T10:20:20;17.95;;;8.15;;
5414;SDS011;2730;51.512;7.504;2024-01-10T10:22:57;17.45;;;7.35;;
5414;SDS011;2730;51.512;7.504;2024-01-10T10:25:26;26.88;;;9.55;;
5414;SDS011;2730;51.512;7.504;2024-01-10T10:27:57;16.88;;;7.75;;
5414;SDS011;2730;51.512;7.504;2024-01-10T10:30:24;15.70;;;6.63;;
5414;SDS011;2730;51.512;7.504;2024-01-10T10:32:51;18.58;;;7.93;;
5414;SDS011;2730;51.512;7.504;2024-01-10T10:35:19;24.52;;;9.20;;
5414;SDS011;2730;51.512;7.504;2024-01-10T10:37:48;26.75;;;7.85;;
5414;SDS011;2730;51.512;7.504;2024-01-10T10:40:19;16.60;;;6.90;;
5414;SDS011;2730;51.512;7.504;2024-01-10T10:42:47;15.70;;;7.32;;
5414;SDS011;2730;51.512;7.504;2024-01-10T10:45:16;22.67;;;7.40;;
5414;SDS011;2730;51.512;7.504;2024-01-10T10:47:50;18.92;;;7.70;;
5414;SDS011;2730;51.512;7.504;2024-01-10T10:50:23;11.80;;;6.10;;
5414;SDS011;2730;51.512;7.504;2024-01-10T10:52:50;10.95;;;5.55;;
5414;SDS011;2730;51.512;7.504;2024-01-10T10:55:20;22.58;;;6.68;;
5414;SDS011;2730;51.512;7.504;2024-01-10T10:57:49;19.95;;;7.60;;
5414;SDS011;2730;51.512;7.504;2024-01-10T11:00:18;16.58;;;7.72;;
5414;SDS011;2730;51.512;7.504;2024-01-10T11:02:47;16.05;;;7.95;;
5414;SDS011;2730;51.512;7.504;2024-01-10T11:05:14;21.92;;;8.90;;
5414;SDS011;2730;51.512;7.504;2024-01-10T11:07:42;31.40;;;9.20;;
5414;SDS011;2730;51.512;7.504;2024-01-10T11:10:11;12.57;;;7.13;;
5414;SDS011;2730;51.512;7.504;2024-01-10T11:12:48;24.38;;;8.15;;
5414;SDS011;2730;51.512;7.504;2024-01-10T11:18:47;21.20;;;8.57;;
5414;SDS011;2730;51.512;7.504;2024-01-10T11:21:28;23.05;;;6.68;;
5414;SDS011;2730;51.512;7.504;2024-01-10T11:24:07;24.08;;;8.13;;
5414;SDS011;2730;51.512;7.504;2024-01-10T11:26:38;12.38;;;5.45;;
5414;SDS011;2730;51.512;7.504;2024-01-10T11:29:06;23.73;;;6.10;;
5414;SDS011;2730;51.512;7.504;2024-01-10T11:31:34;23.20;;;8.20;;
5414;SDS011;2730;51.512;7.504;2024-01-10T11:34:02;16.90;;;6.95;;
5414;SDS011;2730;51.512;7.504;2024-01-10T11:36:29;19.83;;;6.63;;
5414;SDS011;2730;51.512;7.504;2024-01-10T11:38:57;25.13;;;6.97;;
5414;SDS011;2730;51.512;7.504;2024-01-10T11:41:27;16.08;;;7.88;;
5414;SDS011;2730;51.512;7.504;2024-01-10T11:46:55;13.95;;;6.07;;
5414;SDS011;2730;51.512;7.504;2024-01-10T11:49:23;16.98;;;6.38;;
5414;SDS011;2730;51.512;7.504;2024-01-10T11:51:53;16.00;;;7.30;;
5414;SDS011;2730;51.512;7.504;2024-01-10T11:54:40;19.42;;;7.78;;
5414;SDS011;2730;51.512;7.504;2024-01-10T11:57:08;19.92;;;8.27;;
5414;SDS011;2730;51.512;7.504;2024-01-10T11:59:37;15.27;;;6.30;;
5414;SDS011;2730;51.512;7.504;2024-01-10T12:02:10;12.45;;;6.40;;
5414;SDS011;2730;51.512;7.504;2024-01-10T12:04:38;17.33;;;7.38;;
5414;SDS011;2730;51.512;7.504;2024-01-10T12:07:09;13.73;;;5.47;;
5414;SDS011;2730;51.512;7.504;2024-01-10T12:09:36;15.55;;;6.50;;
5414;SDS011;2730;51.512;7.504;2024-01-10T12:12:03;21.98;;;6.47;;
5414;SDS011;2730;51.512;7.504;2024-01-10T12:14:31;24.30;;;7.55;;
5414;SDS011;2730;51.512;7.504;2024-01-10T12:16:58;20.08;;;6.28;;
5414;SDS011;2730;51.512;7.504;2024-01-10T12:19:36;22.17;;;6.80;;
5414;SDS011;2730;51.512;7.504;2024-01-10T12:22:03;15.85;;;7.50;;
5414;SDS011;2730;51.512;7.504;2024-01-10T12:24:31;18.42;;;7.10;;
5414;SDS011;2730;51.512;7.504;2024-01-10T12:26:58;19.98;;;7.97;;
5414;SDS011;2730;51.512;7.504;2024-01-10T12:29:25;19.38;;;8.13;;
5414;SDS011;2730;51.512;7.504;2024-01-10T12:31:52;19.38;;;7.78;;
5414;SDS011;2730;51.512;7.504;2024-01-10T12:34:20;16.77;;;8.20;;
5414;SDS011;2730;51.512;7.504;2024-01-10T12:36:49;22.90;;;7.25;;
5414;SDS011;2730;51.512;7.504;2024-01-10T12:39:20;17.00;;;7.35;;
5414;SDS011;2730;51.512;7.504;2024-01-10T12:41:52;21.42;;;7.70;;
5414;SDS011;2730;51.512;7.504;2024-01-10T12:44:19;16.67;;;7.28;;
5414;SDS011;2730;51.512;7.504;2024-01-10T12:46:50;14.60;;;6.28;;
5414;SDS011;2730;51.512;7.504;2024-01-10T12:49:21;13.25;;;5.47;;
5414;SDS011;2730;51.512;7.504;2024-01-10T12:51:52;12.80;;;6.00;;
5414;SDS011;2730;51.512;7.504;2024-01-10T12:54:19;15.73;;;6.07;;
5414;SDS011;2730;51.512;7.504;2024-01-10T12:56:47;22.27;;;7.45;;
5414;SDS011;2730;51.512;7.504;2024-01-10T12:59:17;18.40;;;7.18;;
5414;SDS011;2730;51.512;7.504;2024-01-10T13:01:43;16.75;;;7.10;;
5414;SDS011;2730;51.512;7.504;2024-01-10T13:04:10;10.13;;;5.50;;
5414;SDS011;2730;51.512;7.504;2024-01-10T13:06:39;21.45;;;8.20;;
5414;SDS011;2730;51.512;7.504;2024-01-10T13:09:07;15.15;;;6.80;;
5414;SDS011;2730;51.512;7.504;2024-01-10T13:11:37;16.20;;;5.75;;
5414;SDS011;2730;51.512;7.504;2024-01-10T13:14:04;20.05;;;7.00;;
5414;SDS011;2730;51.512;7.504;2024-01-10T13:16:31;17.85;;;6.40;;
5414;SDS011;2730;51.512;7.504;2024-01-10T13:18:58;18.92;;;6.38;;
5414;SDS011;2730;51.512;7.504;2024-01-10T13:21:26;16.73;;;6.50;;
5414;SDS011;2730;51.512;7.504;2024-01-10T13:23:53;17.60;;;5.97;;
5414;SDS011;2730;51.512;7.504;2024-01-10T13:26:29;12.35;;;6.35;;
5414;SDS011;2730;51.512;7.504;2024-01-10T13:28:55;18.70;;;7.13;;
5414;SDS011;2730;51.512;7.504;2024-01-10T13:31:22;10.95;;;5.50;;
5414;SDS011;2730;51.512;7.504;2024-01-10T13:33:50;18.45;;;6.75;;
5414;SDS011;2730;51.512;7.504;2024-01-10T13:36:18;15.05;;;6.13;;
5414;SDS011;2730;51.512;7.504;2024-01-10T13:38:45;16.13;;;6.20;;
5414;SDS011;2730;51.512;7.504;2024-01-10T13:41:24;14.50;;;6.22;;
5414;SDS011;2730;51.512;7.504;2024-01-10T13:43:52;13.50;;;5.22;;
5414;SDS011;2730;51.512;7.504;2024-01-10T13:46:21;16.08;;;6.93;;
5414;SDS011;2730;51.512;7.504;2024-01-10T13:48:47;13.30;;;6.47;;
5414;SDS011;2730;51.512;7.504;2024-01-10T13:51:16;21.40;;;6.25;;
5414;SDS011;2730;51.512;7.504;2024-01-10T13:53:43;17.05;;;6.53;;
5414;SDS011;2730;51.512;7.504;2024-01-10T13:56:10;13.90;;;5.72;;
5414;SDS011;2730;51.512;7.504;2024-01-10T13:58:37;21.52;;;6.25;;
5414;SDS011;2730;51.512;7.504;2024-01-10T14:01:08;12.75;;;6.05;;
5414;SDS011;2730;51.512;7.504;2024-01-10T14:03:36;19.30;;;6.43;;
5414;SDS011;2730;51.512;7.504;2024-01-10T14:06:03;14.23;;;5.95;;
5414;SDS011;2730;51.512;7.504;2024-01-10T14:08:31;18.42;;;6.40;;
5414;SDS011;2730;51.512;7.504;2024-01-10T14:11:05;18.05;;;6.00;;
5414;SDS011;2730;51.512;7.504;2024-01-10T14:13:32;18.00;;;5.82;;
5414;SDS011;2730;51.512;7.504;2024-01-10T14:16:00;13.68;;;5.78;;
5414;SDS011;2730;51.512;7.504;2024-01-10T14:18:28;19.90;;;6.72;;
5414;SDS011;2730;51.512;7.504;2024-01-10T14:20:55;9.85;;;5.00;;
5414;SDS011;2730;51.512;7.504;2024-01-10T14:23:22;20.55;;;6.68;;
5414;SDS011;2730;51.512;7.504;2024-01-10T14:25:49;19.65;;;6.15;;
5414;SDS011;2730;51.512;7.504;2024-01-10T14:28:18;16.92;;;6.03;;
5414;SDS011;2730;51.512;7.504;2024-01-10T14:30:48;16.20;;;5.68;;
5414;SDS011;2730;51.512;7.504;2024-01-10T14:33:15;10.43;;;6.38;;
5414;SDS011;2730;51.512;7.504;2024-01-10T14:35:43;11.30;;;5.53;;
5414;SDS011;2730;51.512;7.504;2024-01-10T14:38:12;14.52;;;6.50;;
5414;SDS011;2730;51.512;7.504;2024-01-10T14:40:39;9.50;;;5.65;;
5414;SDS011;2730;51.512;7.504;2024-01-10T14:43:06;17.70;;;6.72;;
5414;SDS011;2730;51.512;7.504;2024-01-10T14:45:32;15.32;;;6.60;;
5414;SDS011;2730;51.512;7.504;2024-01-10T14:48:00;13.73;;;5.82;;
5414;SDS011;2730;51.512;7.504;2024-01-10T14:50:30;15.88;;;6.40;;
5414;SDS011;2730;51.512;7.504;2024-01-10T14:52:58;18.50;;;6.35;;
5414;SDS011;2730;51.512;7.504;2024-01-10T14:55:25;14.77;;;5.93;;
5414;SDS011;2730;51.512;7.504;2024-01-10T14:57:53;17.95;;;6.30;;
5414;SDS011;2730;51.512;7.504;2024-01-10T15:00:22;11.80;;;6.63;;
5414;SDS011;2730;51.512;7.504;2024-01-10T15:02:49;16.58;;;6.22;;
5414;SDS011;2730;51.512;7.504;2024-01-10T15:05:16;13.55;;;5.38;;
5414;SDS011;2730;51.512;7.504;2024-01-10T15:07:44;18.67;;;5.65;;
5414;SDS011;2730;51.512;7.504;2024-01-10T15:10:14;18.17;;;6.07;;
5414;SDS011;2730;51.512;7.504;2024-01-10T15:12:42;14.95;;;6.75;;
5414;SDS011;2730;51.512;7.504;2024-01-10T15:15:09;16.63;;;5.75;;
5414;SDS011;2730;51.512;7.504;2024-01-10T15:17:36;20.30;;;8.27;;
5414;SDS011;2730;51.512;7.504;2024-01-10T15:20:04;9.13;;;4.93;;